createdAt,value
2017-11-17T00:01:55.720Z,4.60
2017-11-17T00:04:23.329Z,5.27
2017-11-17T00:06:51.065Z,5.47
2017-11-17T00:09:19.596Z,5.30
2017-11-17T00:11:48.070Z,4.60
2017-11-17T00:14:15.919Z,4.90
2017-11-17T00:16:43.493Z,5.27
2017-11-17T00:19:11.171Z,4.47
2017-11-17T00:21:38.835Z,4.63
2017-11-17T00:24:06.618Z,4.50
2017-11-17T00:26:34.371Z,5.00
2017-11-17T00:29:02.061Z,4.07
2017-11-17T00:31:29.876Z,4.23
2017-11-17T00:33:57.569Z,4.23
2017-11-17T00:36:25.258Z,4.97
2017-11-17T00:38:53.022Z,3.70
2017-11-17T00:41:21.389Z,4.20
2017-11-17T00:43:49.033Z,4.50
2017-11-17T00:46:16.838Z,3.60
2017-11-17T00:48:45.273Z,3.67
2017-11-17T00:51:12.987Z,3.83
2017-11-17T00:53:40.761Z,3.10
2017-11-17T00:56:09.392Z,3.80
2017-11-17T00:58:37.063Z,3.80
2017-11-17T01:01:04.699Z,2.80
2017-11-17T01:03:32.457Z,3.83
2017-11-17T01:06:00.140Z,3.67
2017-11-17T01:08:27.858Z,3.13
2017-11-17T01:10:58.129Z,4.10
2017-11-17T01:13:25.775Z,2.90
2017-11-17T01:15:53.374Z,2.97
2017-11-17T01:18:21.061Z,3.30
2017-11-17T01:20:49.608Z,3.00
2017-11-17T01:23:17.501Z,3.10
2017-11-17T01:25:45.266Z,2.40
2017-11-17T01:28:12.945Z,2.93
2017-11-17T01:30:41.435Z,2.77
2017-11-17T01:33:09.955Z,2.87
2017-11-17T01:35:37.742Z,2.90
2017-11-17T01:38:05.520Z,3.60
2017-11-17T01:40:33.177Z,3.43
2017-11-17T01:43:00.793Z,3.00
2017-11-17T01:45:28.519Z,3.53
2017-11-17T01:47:56.261Z,3.97
2017-11-17T01:50:23.989Z,2.87
2017-11-17T01:52:51.749Z,2.83
2017-11-17T01:55:19.460Z,3.53
2017-11-17T01:57:47.176Z,3.40
2017-11-17T02:00:14.828Z,3.60
2017-11-17T02:02:43.395Z,3.80
2017-11-17T02:05:11.835Z,3.70
2017-11-17T02:07:39.573Z,3.80
2017-11-17T02:10:07.363Z,4.63
2017-11-17T02:12:35.142Z,4.63
2017-11-17T02:15:02.894Z,3.70
2017-11-17T02:17:30.553Z,4.53
2017-11-17T02:19:58.319Z,3.90
2017-11-17T02:22:26.109Z,4.23
2017-11-17T02:24:53.775Z,4.70
2017-11-17T02:27:21.523Z,3.67
2017-11-17T02:29:50.181Z,4.67
2017-11-17T02:32:17.975Z,3.80
2017-11-17T02:34:45.733Z,4.43
2017-11-17T02:37:13.509Z,3.90
2017-11-17T02:39:41.318Z,4.50
2017-11-17T02:42:09.082Z,4.30
2017-11-17T02:44:37.535Z,3.30
2017-11-17T02:47:05.367Z,3.57
2017-11-17T02:49:33.212Z,3.90
2017-11-17T02:52:01.128Z,3.83
2017-11-17T02:54:28.796Z,4.03
2017-11-17T02:56:56.537Z,4.90
2017-11-17T02:59:24.457Z,4.27
2017-11-17T03:01:52.248Z,3.33
2017-11-17T03:04:20.824Z,3.57
2017-11-17T03:06:48.543Z,3.90
2017-11-17T03:09:17.078Z,3.80
2017-11-17T03:11:44.737Z,3.33
2017-11-17T03:14:12.451Z,3.00
2017-11-17T03:16:40.289Z,3.87
2017-11-17T03:19:07.978Z,2.83
2017-11-17T03:21:35.650Z,3.43
2017-11-17T03:24:03.416Z,3.63
2017-11-17T03:26:31.124Z,3.70
2017-11-17T03:28:58.922Z,4.00
2017-11-17T03:31:26.575Z,3.50
2017-11-17T03:33:54.407Z,3.60
2017-11-17T03:36:22.928Z,3.73
2017-11-17T03:38:51.641Z,4.53
2017-11-17T03:41:19.472Z,3.27
2017-11-17T03:43:47.294Z,3.93
2017-11-17T03:46:15.960Z,3.23
2017-11-17T03:48:43.635Z,4.60
2017-11-17T03:51:11.292Z,3.10
2017-11-17T03:53:38.981Z,3.27
2017-11-17T03:56:06.568Z,3.00
2017-11-17T03:58:34.255Z,3.37
2017-11-17T04:01:02.013Z,3.40
2017-11-17T04:03:29.690Z,3.20
2017-11-17T04:05:57.362Z,3.17
2017-11-17T04:08:25.040Z,3.60
2017-11-17T04:10:53.366Z,3.43
2017-11-17T04:13:22.653Z,3.20
2017-11-17T04:15:50.400Z,3.33
2017-11-17T04:18:18.191Z,4.60
2017-11-17T04:20:45.843Z,3.20
2017-11-17T04:23:13.506Z,3.20
2017-11-17T04:25:41.217Z,3.53
2017-11-17T04:28:08.997Z,3.03
2017-11-17T04:30:36.757Z,3.63
2017-11-17T04:33:04.491Z,3.43
2017-11-17T04:35:32.111Z,2.63
2017-11-17T04:37:59.844Z,2.83
2017-11-17T04:40:27.485Z,3.23
2017-11-17T04:42:55.137Z,3.23
2017-11-17T04:45:22.839Z,2.90
2017-11-17T04:47:50.505Z,2.97
2017-11-17T04:50:18.269Z,3.57
2017-11-17T04:52:46.765Z,3.30
2017-11-17T04:55:15.298Z,2.87
2017-11-17T04:57:43.061Z,2.60
2017-11-17T05:00:10.773Z,3.37
2017-11-17T05:02:39.233Z,3.40
2017-11-17T05:05:06.997Z,2.40
2017-11-17T05:07:34.729Z,3.30
2017-11-17T05:10:02.411Z,3.20
2017-11-17T05:12:30.144Z,2.73
2017-11-17T05:14:57.803Z,3.53
2017-11-17T05:17:25.531Z,2.80
2017-11-17T05:19:53.512Z,3.55
2017-11-17T05:22:21.266Z,3.43
2017-11-17T05:24:49.018Z,2.40
2017-11-17T05:27:16.620Z,2.57
2017-11-17T05:29:45.192Z,3.13
2017-11-17T05:32:12.824Z,3.03
2017-11-17T05:34:40.702Z,3.07
2017-11-17T05:37:08.587Z,3.33
2017-11-17T05:39:38.175Z,3.17
2017-11-17T05:42:07.804Z,3.10
2017-11-17T05:44:36.298Z,3.40
2017-11-17T05:47:04.071Z,2.70
2017-11-17T05:49:32.547Z,3.30
2017-11-17T05:52:01.137Z,2.57
2017-11-17T05:54:29.677Z,3.23
2017-11-17T05:56:57.333Z,3.83
2017-11-17T05:59:25.089Z,3.67
2017-11-17T06:01:52.670Z,4.07
2017-11-17T06:04:20.440Z,4.70
2017-11-17T06:06:48.126Z,3.70
2017-11-17T06:09:15.711Z,3.73
2017-11-17T06:11:43.387Z,4.43
2017-11-17T06:14:11.004Z,3.17
2017-11-17T06:16:39.561Z,3.20
2017-11-17T06:19:07.230Z,3.87
2017-11-17T06:21:34.863Z,3.37
2017-11-17T06:24:02.500Z,3.80
2017-11-17T06:26:30.099Z,3.50
2017-11-17T06:28:57.824Z,3.10
2017-11-17T06:31:25.494Z,4.60
2017-11-17T06:33:53.136Z,5.20
2017-11-17T06:36:21.580Z,4.50
2017-11-17T06:38:49.236Z,4.97
2017-11-17T06:41:16.854Z,5.87
2017-11-17T06:43:44.447Z,6.77
2017-11-17T06:46:12.060Z,7.33
2017-11-17T06:48:40.507Z,7.80
2017-11-17T06:51:08.286Z,10.57
2017-11-17T06:53:35.870Z,9.90
2017-11-17T06:56:04.289Z,11.97
2017-11-17T06:58:34.773Z,7.90
2017-11-17T07:01:02.396Z,8.90
2017-11-17T07:03:30.203Z,7.57
2017-11-17T07:05:58.787Z,7.00
2017-11-17T07:08:26.495Z,8.50
2017-11-17T07:10:54.195Z,7.23
2017-11-17T07:13:21.936Z,6.50
2017-11-17T07:15:49.554Z,6.27
2017-11-17T07:18:18.076Z,5.73
2017-11-17T07:20:45.830Z,6.30
2017-11-17T07:23:13.583Z,5.37
2017-11-17T07:25:41.216Z,6.80
2017-11-17T07:28:09.699Z,5.87
2017-11-17T07:30:38.247Z,6.10
2017-11-17T07:33:05.869Z,6.40
2017-11-17T07:35:33.619Z,6.10
2017-11-17T07:38:01.217Z,5.90
2017-11-17T07:40:28.871Z,5.93
2017-11-17T07:42:56.514Z,6.87
2017-11-17T07:45:24.284Z,6.17
2017-11-17T07:47:52.055Z,5.50
2017-11-17T07:50:19.768Z,6.20
2017-11-17T07:52:47.567Z,4.60
2017-11-17T07:55:15.922Z,5.43
2017-11-17T07:57:43.689Z,5.80
2017-11-17T08:00:12.063Z,5.00
2017-11-17T08:02:39.837Z,4.67
2017-11-17T08:05:08.347Z,6.77
2017-11-17T08:07:35.992Z,5.47
2017-11-17T08:10:04.580Z,4.90
2017-11-17T08:12:32.424Z,5.10
2017-11-17T08:15:00.110Z,5.07
2017-11-17T08:17:39.410Z,5.30
2017-11-17T08:20:07.260Z,5.60
2017-11-17T08:22:35.016Z,5.33
2017-11-17T08:25:02.693Z,5.43
2017-11-17T08:27:30.436Z,5.13
2017-11-17T08:29:58.122Z,5.40
2017-11-17T08:32:25.791Z,5.00
2017-11-17T08:34:53.552Z,6.07
2017-11-17T08:37:21.445Z,5.10
2017-11-17T08:39:49.185Z,5.33
2017-11-17T08:42:16.971Z,5.80
2017-11-17T08:44:44.838Z,6.13
2017-11-17T08:47:13.319Z,5.13
2017-11-17T08:49:41.068Z,6.20
2017-11-17T08:52:08.817Z,5.57
2017-11-17T08:54:36.692Z,5.60
2017-11-17T08:57:04.569Z,6.10
2017-11-17T08:59:32.303Z,5.90
2017-11-17T09:01:59.997Z,5.40
2017-11-17T09:04:27.724Z,5.23
2017-11-17T09:06:55.479Z,4.57
2017-11-17T09:09:23.164Z,4.47
2017-11-17T09:11:50.971Z,4.60
2017-11-17T09:14:18.671Z,4.67
2017-11-17T09:16:46.493Z,5.00
2017-11-17T09:19:14.140Z,5.27
2017-11-17T09:21:41.858Z,4.10
2017-11-17T09:24:10.329Z,4.57
2017-11-17T09:26:38.936Z,3.70
2017-11-17T09:29:06.757Z,4.63
2017-11-17T09:31:34.448Z,4.47
2017-11-17T09:34:02.154Z,3.90
2017-11-17T09:36:29.874Z,4.43
2017-11-17T09:38:57.941Z,5.60
2017-11-17T09:41:26.407Z,4.60
2017-11-17T09:43:53.995Z,4.10
2017-11-17T09:46:21.690Z,3.60
2017-11-17T09:48:49.541Z,4.10
2017-11-17T09:51:17.338Z,4.57
2017-11-17T09:53:45.043Z,3.97
2017-11-17T09:56:13.641Z,4.37
2017-11-17T09:58:41.304Z,4.47
2017-11-17T10:01:09.889Z,4.60
2017-11-17T10:03:38.408Z,4.83
2017-11-17T10:06:06.059Z,5.10
2017-11-17T10:08:33.800Z,5.03
2017-11-17T10:11:01.505Z,5.07
2017-11-17T10:13:29.249Z,5.30
2017-11-17T10:15:56.899Z,4.20
2017-11-17T10:18:24.583Z,5.40
2017-11-17T10:20:52.212Z,5.27
2017-11-17T10:23:20.607Z,5.87
2017-11-17T10:25:48.302Z,5.00
2017-11-17T10:28:16.103Z,5.57
2017-11-17T10:30:43.806Z,5.67
2017-11-17T10:33:11.509Z,4.70
2017-11-17T10:35:39.177Z,4.63
2017-11-17T10:38:06.884Z,4.80
2017-11-17T10:40:34.593Z,4.07
2017-11-17T10:43:02.232Z,4.47
2017-11-17T10:45:29.989Z,6.40
2017-11-17T10:47:57.701Z,2.90
2017-11-17T10:50:26.162Z,4.53
2017-11-17T10:52:53.859Z,3.57
2017-11-17T10:55:21.620Z,2.87
2017-11-17T10:57:49.362Z,2.93
2017-11-17T11:00:22.110Z,3.60
2017-11-17T11:02:49.700Z,4.03
2017-11-17T11:05:17.494Z,2.83
2017-11-17T11:07:46.232Z,3.40
2017-11-17T11:10:13.870Z,3.00
2017-11-17T11:12:41.689Z,3.20
2017-11-17T11:15:09.494Z,3.50
2017-11-17T11:17:38.026Z,3.93
2017-11-17T11:20:06.387Z,3.77
2017-11-17T11:22:34.176Z,3.20
2017-11-17T11:25:01.866Z,3.33
2017-11-17T11:27:30.178Z,2.95
2017-11-17T11:29:57.865Z,2.97
2017-11-17T11:32:25.510Z,2.93
2017-11-17T11:34:53.140Z,2.90
2017-11-17T11:37:21.707Z,3.20
2017-11-17T11:39:49.518Z,2.20
2017-11-17T11:42:17.753Z,3.67
2017-11-17T11:44:45.423Z,2.30
2017-11-17T11:47:13.042Z,2.40
2017-11-17T11:49:40.750Z,2.30
2017-11-17T11:52:08.527Z,2.10
2017-11-17T11:54:36.266Z,2.60
2017-11-17T11:57:04.107Z,2.73
2017-11-17T11:59:31.878Z,2.33
2017-11-17T12:02:00.547Z,1.30
2017-11-17T12:04:28.147Z,1.97
2017-11-17T12:06:55.801Z,2.00
2017-11-17T12:09:23.642Z,1.53
2017-11-17T12:11:51.283Z,2.00
2017-11-17T12:14:19.744Z,2.10
2017-11-17T12:16:47.466Z,2.07
2017-11-17T12:19:15.198Z,2.67
2017-11-17T12:21:42.830Z,1.20
2017-11-17T12:24:10.456Z,1.50
2017-11-17T12:26:38.291Z,2.00
2017-11-17T12:29:05.938Z,2.50
2017-11-17T12:31:34.339Z,2.40
2017-11-17T12:34:02.120Z,1.77
2017-11-17T12:36:31.597Z,1.00
2017-11-17T12:38:59.359Z,1.73
2017-11-17T12:41:27.050Z,2.33
2017-11-17T12:43:54.762Z,1.47
2017-11-17T12:46:22.500Z,2.20
2017-11-17T12:48:50.236Z,1.67
2017-11-17T12:51:17.954Z,2.07
2017-11-17T12:53:45.771Z,3.00
2017-11-17T12:56:13.481Z,1.83
2017-11-17T12:58:41.204Z,2.97
2017-11-17T13:01:08.938Z,2.33
2017-11-17T13:03:36.715Z,1.57
2017-11-17T13:06:04.409Z,1.20
2017-11-17T13:08:32.154Z,1.50
2017-11-17T13:10:59.886Z,1.87
2017-11-17T13:13:28.380Z,1.40
2017-11-17T13:15:56.806Z,1.73
2017-11-17T13:18:24.557Z,1.17
2017-11-17T13:20:52.224Z,1.37
2017-11-17T13:23:20.026Z,2.20
2017-11-17T13:25:47.763Z,1.80
2017-11-17T13:28:15.376Z,2.03
2017-11-17T13:30:43.847Z,2.73
2017-11-17T13:33:12.387Z,1.90
2017-11-17T13:35:40.179Z,1.45
2017-11-17T13:38:07.912Z,1.73
2017-11-17T13:40:35.665Z,1.43
2017-11-17T13:43:03.443Z,1.47
2017-11-17T13:45:32.097Z,1.50
2017-11-17T13:48:00.533Z,1.93
2017-11-17T13:50:28.219Z,1.60
2017-11-17T13:52:56.657Z,1.53
2017-11-17T13:55:24.397Z,1.20
2017-11-17T13:57:52.157Z,1.60
2017-11-17T14:00:19.889Z,1.80
2017-11-17T14:02:47.732Z,1.93
2017-11-17T14:05:15.370Z,2.23
2017-11-17T14:07:42.952Z,2.07
2017-11-17T14:10:10.451Z,1.40
2017-11-17T14:12:38.837Z,1.30
2017-11-17T14:15:07.369Z,2.00
2017-11-17T14:17:35.101Z,2.23
2017-11-17T14:20:02.924Z,0.97
2017-11-17T14:22:30.532Z,2.10
2017-11-17T14:24:58.161Z,2.00
2017-11-17T14:27:25.778Z,1.63
2017-11-17T14:29:53.465Z,1.27
2017-11-17T14:32:21.066Z,1.47
2017-11-17T14:34:49.518Z,1.70
2017-11-17T14:37:17.270Z,1.97
2017-11-17T14:39:44.973Z,1.57
2017-11-17T14:42:12.588Z,1.43
2017-11-17T14:44:40.359Z,1.83
2017-11-17T14:47:08.058Z,2.80
2017-11-17T14:49:36.519Z,1.60
2017-11-17T14:52:04.271Z,1.20
2017-11-17T14:54:32.003Z,1.17
2017-11-17T14:56:59.754Z,1.97
2017-11-17T14:59:27.496Z,1.30
2017-11-17T15:01:56.035Z,1.90
2017-11-17T15:04:23.922Z,2.63
2017-11-17T15:06:51.691Z,1.50
2017-11-17T15:09:19.304Z,1.77
2017-11-17T15:11:47.029Z,1.80
2017-11-17T15:14:15.410Z,2.07
2017-11-17T15:16:43.830Z,4.47
2017-11-17T15:19:11.514Z,2.03
2017-11-17T15:21:39.295Z,2.30
2017-11-17T15:24:06.959Z,3.60
2017-11-17T15:26:34.626Z,3.47
2017-11-17T15:29:02.405Z,4.00
2017-11-17T15:31:30.845Z,5.17
2017-11-17T15:33:58.548Z,6.43
2017-11-17T15:36:26.262Z,7.00
2017-11-17T15:38:54.158Z,7.73
2017-11-17T15:41:21.914Z,5.97
2017-11-17T15:43:49.774Z,3.77
2017-11-17T15:46:17.461Z,3.70
2017-11-17T15:48:45.251Z,2.13
2017-11-17T15:51:13.753Z,4.10
2017-11-17T15:53:41.491Z,2.60
2017-11-17T15:56:09.135Z,2.93
2017-11-17T15:58:36.868Z,2.90
2017-11-17T16:01:04.538Z,2.00
2017-11-17T16:03:32.284Z,2.67
2017-11-17T16:06:00.041Z,2.17
2017-11-17T16:08:27.771Z,2.43
2017-11-17T16:10:55.387Z,2.50
2017-11-17T16:13:23.114Z,2.63
2017-11-17T16:15:51.606Z,2.47
2017-11-17T16:18:20.236Z,3.07
2017-11-17T16:20:47.961Z,3.80
2017-11-17T16:23:16.355Z,3.47
2017-11-17T16:25:44.060Z,3.87
2017-11-17T16:28:11.777Z,3.67
2017-11-17T16:30:39.506Z,3.63
2017-11-17T16:33:07.164Z,3.20
2017-11-17T16:35:34.996Z,3.40
2017-11-17T16:38:03.482Z,3.63
2017-11-17T16:40:31.957Z,3.70
2017-11-17T16:42:59.590Z,3.13
2017-11-17T16:45:27.360Z,3.40
2017-11-17T16:47:55.133Z,4.67
2017-11-17T16:50:22.966Z,4.73
2017-11-17T16:52:50.798Z,4.07
2017-11-17T16:55:18.505Z,3.47
2017-11-17T16:57:46.908Z,3.33
2017-11-17T17:00:14.681Z,3.37
2017-11-17T17:02:42.363Z,3.00
2017-11-17T17:05:10.150Z,3.70
2017-11-17T17:07:37.892Z,3.40
2017-11-17T17:10:05.713Z,2.83
2017-11-17T17:12:34.077Z,4.60
2017-11-17T17:15:02.499Z,6.13
2017-11-17T17:17:30.099Z,6.73
2017-11-17T17:19:57.827Z,8.60
2017-11-17T17:22:25.546Z,7.50
2017-11-17T17:24:54.066Z,5.83
2017-11-17T17:27:21.707Z,6.80
2017-11-17T17:29:50.215Z,5.90
2017-11-17T17:32:18.768Z,5.77
2017-11-17T17:34:46.532Z,6.90
2017-11-17T17:37:15.123Z,6.17
2017-11-17T17:39:43.616Z,5.83
2017-11-17T17:42:11.420Z,6.10
2017-11-17T17:44:39.104Z,6.70
2017-11-17T17:47:06.769Z,8.53
2017-11-17T17:49:34.453Z,7.00
2017-11-17T17:52:02.937Z,4.83
2017-11-17T17:54:31.383Z,5.37
2017-11-17T17:56:59.012Z,5.50
2017-11-17T17:59:26.694Z,4.57
2017-11-17T18:01:54.400Z,4.50
2017-11-17T18:04:22.178Z,5.60
2017-11-17T18:06:50.602Z,5.47
2017-11-17T18:09:18.225Z,6.30
2017-11-17T18:11:45.864Z,5.03
2017-11-17T18:14:13.538Z,5.13
2017-11-17T18:16:41.977Z,3.93
2017-11-17T18:19:09.653Z,3.73
2017-11-17T18:21:37.351Z,3.93
2017-11-17T18:24:05.969Z,3.25
2017-11-17T18:26:33.687Z,3.47
2017-11-17T18:29:01.389Z,3.63
2017-11-17T18:31:29.080Z,3.27
2017-11-17T18:33:56.979Z,4.33
2017-11-17T18:36:24.646Z,4.30
2017-11-17T18:38:53.155Z,5.50
2017-11-17T18:41:20.767Z,3.97
2017-11-17T18:43:48.422Z,3.50
2017-11-17T18:46:16.988Z,3.37
2017-11-17T18:48:45.485Z,5.07
2017-11-17T18:51:13.258Z,3.30
2017-11-17T18:53:40.812Z,3.30
2017-11-17T18:56:08.406Z,4.50
2017-11-17T18:58:37.764Z,3.83
2017-11-17T19:01:05.482Z,4.57
2017-11-17T19:03:33.291Z,4.63
2017-11-17T19:06:01.161Z,4.00
2017-11-17T19:08:28.887Z,4.20
2017-11-17T19:10:56.588Z,5.00
2017-11-17T19:13:24.291Z,4.93
2017-11-17T19:15:51.963Z,4.50
2017-11-17T19:18:19.581Z,4.47
2017-11-17T19:20:47.305Z,5.70
2017-11-17T19:23:16.006Z,4.03
2017-11-17T19:25:44.933Z,4.73
2017-11-17T19:28:13.678Z,5.20
2017-11-17T19:30:41.443Z,4.97
2017-11-17T19:33:09.241Z,4.80
2017-11-17T19:35:36.872Z,4.57
2017-11-17T19:38:05.591Z,5.13
2017-11-17T19:40:33.265Z,3.83
2017-11-17T19:43:01.139Z,5.20
2017-11-17T19:45:28.945Z,4.27
2017-11-17T19:47:56.542Z,4.77
2017-11-17T19:50:24.272Z,3.87
2017-11-17T19:52:51.874Z,4.80
2017-11-17T19:55:19.662Z,4.60
2017-11-17T19:57:48.106Z,4.60
2017-11-17T20:00:15.931Z,5.50
2017-11-17T20:02:43.625Z,5.27
2017-11-17T20:05:11.557Z,6.30
2017-11-17T20:07:39.267Z,5.60
2017-11-17T20:10:07.006Z,5.40
2017-11-17T20:12:35.514Z,6.20
2017-11-17T20:15:03.131Z,6.40
2017-11-17T20:17:30.989Z,4.80
2017-11-17T20:19:59.671Z,5.90
2017-11-17T20:22:29.245Z,5.73
2017-11-17T20:24:56.966Z,5.10
2017-11-17T20:27:24.935Z,4.83
2017-11-17T20:29:53.367Z,5.30
2017-11-17T20:32:21.137Z,5.93
2017-11-17T20:34:48.970Z,6.30
2017-11-17T20:37:16.710Z,6.13
2017-11-17T20:39:44.315Z,5.50
2017-11-17T20:42:12.047Z,5.80
2017-11-17T20:44:41.051Z,6.27
2017-11-17T20:47:11.612Z,8.05
2017-11-17T20:49:39.482Z,8.00
2017-11-17T20:52:07.065Z,6.57
2017-11-17T20:54:34.754Z,7.30
2017-11-17T20:57:02.583Z,6.60
2017-11-17T20:59:30.222Z,6.73
2017-11-17T21:01:58.070Z,6.50
2017-11-17T21:04:25.729Z,7.17
2017-11-17T21:06:54.430Z,6.50
2017-11-17T21:09:22.112Z,6.20
2017-11-17T21:11:49.912Z,6.35
2017-11-17T21:14:17.518Z,6.57
2017-11-17T21:16:45.400Z,7.37
2017-11-17T21:19:13.107Z,6.90
2017-11-17T21:21:42.010Z,5.70
2017-11-17T21:24:10.772Z,6.20
2017-11-17T21:26:38.522Z,6.43
2017-11-17T21:29:06.242Z,6.50
2017-11-17T21:31:34.706Z,6.00
2017-11-17T21:34:03.243Z,6.77
2017-11-17T21:36:30.987Z,7.83
2017-11-17T21:38:58.702Z,7.63
2017-11-17T21:41:26.327Z,6.70
2017-11-17T21:43:54.000Z,6.37
2017-11-17T21:46:21.863Z,6.30
2017-11-17T21:48:49.474Z,6.70
2017-11-17T21:51:17.165Z,6.40
2017-11-17T21:53:44.880Z,6.50
2017-11-17T21:56:12.709Z,6.53
2017-11-17T21:58:40.920Z,6.70
2017-11-17T22:01:08.698Z,5.90
2017-11-17T22:03:36.345Z,6.47
2017-11-17T22:06:04.046Z,6.40
2017-11-17T22:08:32.408Z,6.23
2017-11-17T22:11:01.220Z,6.40
2017-11-17T22:13:29.730Z,6.80
2017-11-17T22:15:57.375Z,5.97
2017-11-17T22:18:25.089Z,6.60
2017-11-17T22:20:52.815Z,5.70
2017-11-17T22:23:20.473Z,6.53
2017-11-17T22:25:48.162Z,6.70
2017-11-17T22:28:15.759Z,7.13
2017-11-17T22:30:43.527Z,7.10
2017-11-17T22:33:11.541Z,7.23
2017-11-17T22:35:39.279Z,6.20
2017-11-17T22:38:07.646Z,7.80
2017-11-17T22:40:36.079Z,6.57
2017-11-17T22:43:03.733Z,7.50
2017-11-17T22:45:31.447Z,6.47
2017-11-17T22:47:59.129Z,7.40
2017-11-17T22:50:27.536Z,6.63
2017-11-17T22:52:55.309Z,6.85
2017-11-17T22:55:23.042Z,7.83
2017-11-17T22:57:51.517Z,8.73
2017-11-17T23:00:19.170Z,9.30
2017-11-17T23:02:46.801Z,9.80
2017-11-17T23:05:14.415Z,10.23
2017-11-17T23:07:42.119Z,11.00
2017-11-17T23:10:09.883Z,10.37
2017-11-17T23:12:37.494Z,11.43
2017-11-17T23:15:05.239Z,10.13
2017-11-17T23:17:32.922Z,10.40
2017-11-17T23:20:01.363Z,11.47
2017-11-17T23:22:29.188Z,12.77
2017-11-17T23:24:56.900Z,9.50
2017-11-17T23:27:24.585Z,9.90
2017-11-17T23:29:52.214Z,9.50
2017-11-17T23:32:20.681Z,6.80
2017-11-17T23:34:48.412Z,6.50
2017-11-17T23:37:16.127Z,6.17
2017-11-17T23:39:43.809Z,5.63
2017-11-17T23:42:11.423Z,5.47
2017-11-17T23:44:39.091Z,5.43
2017-11-17T23:47:06.823Z,5.30
2017-11-17T23:49:34.472Z,5.50
2017-11-17T23:52:02.155Z,4.97
2017-11-17T23:54:29.965Z,5.40
2017-11-17T23:56:57.676Z,5.37
2017-11-17T23:59:26.209Z,4.03
